Time;durP1;ratioP1;P1;durP2;ratioP2;P2;SDS_P1;SDS_P2;PMS_P1;PMS_P2;Temp;Humidity;BMP_temperature;BMP_pressure;BME280_temperature;BME280_humidity;BME280_pressure;Samples;Min_cycle;Max_cycle;Signal;HPM_P1;HPM_P2
2023/01/02 00:00:25;;;;;;;24.38;17.33;;;17.20;78.50;;;18.31;43.97;99424.66;5011102;28;20045;-80
2023/01/02 00:03:11;;;;;;;29.17;19.23;;;17.20;78.60;;;18.30;44.20;99412.06;5017034;28;20060;-80
2023/01/02 00:05:37;;;;;;;31.63;19.30;;;17.20;78.70;;;18.24;44.39;99414.09;5028686;28;20081;-80
2023/01/02 00:08:03;;;;;;;29.33;18.00;;;17.20;78.80;;;18.23;44.19;99412.47;5011932;28;20041;-80
2023/01/02 00:10:29;;;;;;;32.92;19.17;;;17.20;78.80;;;18.26;44.12;99414.59;5025565;28;20053;-80
2023/01/02 00:12:55;;;;;;;31.33;20.42;;;17.10;78.60;;;18.29;44.19;99405.75;4990914;28;20041;-80
2023/01/02 00:15:21;;;;;;;29.02;19.05;;;17.20;78.70;;;18.28;44.25;99406.06;4995859;28;20353;-80
2023/01/02 00:17:48;;;;;;;29.58;19.05;;;17.10;78.70;;;18.26;44.27;99400.06;4990812;28;20038;-80
2023/01/02 00:20:14;;;;;;;32.22;20.27;;;17.20;78.60;;;18.28;44.32;99406.06;5004149;28;20400;-80
2023/01/02 00:22:40;;;;;;;29.85;20.73;;;17.20;78.80;;;18.28;44.42;99406.06;5015991;28;20144;-80
2023/01/02 00:25:08;;;;;;;32.10;20.63;;;17.20;78.90;;;18.26;44.30;99416.53;5031260;28;20045;-80
2023/01/02 00:27:34;;;;;;;30.88;19.60;;;17.20;78.60;;;18.23;44.35;99417.97;5028516;28;20053;-80
2023/01/02 00:30:00;;;;;;;29.70;19.83;;;17.20;78.70;;;18.23;44.25;99413.28;5046996;28;20546;-80
2023/01/02 00:32:26;;;;;;;30.40;19.30;;;17.10;78.70;;;18.25;44.31;99413.00;5035586;28;20053;-80
2023/01/02 00:34:52;;;;;;;31.25;19.77;;;17.10;78.50;;;18.23;44.22;99410.53;5032784;28;20135;-80
2023/01/02 00:37:18;;;;;;;29.73;18.98;;;17.10;78.50;;;18.27;44.22;99408.00;5029590;28;20104;-80
2023/01/02 00:39:44;;;;;;;25.95;18.45;;;17.10;78.60;;;18.22;44.13;99417.16;5015071;28;20927;-80
2023/01/02 00:42:11;;;;;;;25.30;19.08;;;17.10;78.60;;;18.21;44.11;99412.78;5020262;28;20043;-80
2023/01/02 00:44:36;;;;;;;28.67;18.90;;;17.10;78.50;;;18.18;44.27;99421.66;5046218;28;20040;-80
2023/01/02 00:47:03;;;;;;;30.48;19.77;;;17.10;78.70;;;18.17;44.16;99424.72;5050451;28;20060;-80
2023/01/02 00:49:29;;;;;;;29.02;19.17;;;17.00;78.80;;;18.18;44.10;99410.66;5029146;28;20041;-80
2023/01/02 00:51:55;;;;;;;32.72;20.05;;;17.00;78.70;;;18.17;44.15;99419.22;5028491;28;20049;-80
2023/01/02 00:54:21;;;;;;;32.78;20.40;;;17.00;78.80;;;18.17;44.27;99428.28;5042828;28;20064;-80
2023/01/02 00:56:47;;;;;;;29.20;18.80;;;17.00;78.90;;;18.21;44.24;99418.28;5050946;28;20048;-80
2023/01/02 00:59:13;;;;;;;29.95;20.80;;;17.10;78.70;;;18.22;44.81;99416.38;5032553;28;20029;-80
2023/01/02 01:01:40;;;;;;;27.23;19.00;;;17.10;79.40;;;18.30;44.60;99421.13;5002288;28;20060;-80
2023/01/02 01:04:06;;;;;;;23.52;18.27;;;17.10;79.40;;;18.24;44.83;99416.84;5019063;28;20068;-80
2023/01/02 01:06:33;;;;;;;29.83;20.08;;;17.10;79.60;;;18.21;44.40;99415.53;5049476;28;20043;-80
2023/01/02 01:08:59;;;;;;;32.75;19.85;;;17.10;79.00;;;18.21;44.52;99422.97;5036622;28;20041;-80
2023/01/02 01:11:25;;;;;;;31.55;20.58;;;17.10;78.90;;;18.21;44.36;99422.97;5040303;28;20045;-80
2023/01/02 01:13:51;;;;;;;29.92;19.95;;;17.10;78.90;;;18.16;44.32;99420.31;5018204;28;20517;-80
2023/01/02 01:16:18;;;;;;;25.90;18.08;;;17.10;79.00;;;18.20;44.80;99413.91;5048837;28;20133;-80
2023/01/02 01:18:44;;;;;;;26.88;19.55;;;17.10;79.50;;;18.26;44.90;99408.31;5031803;28;20483;-80
2023/01/02 01:21:16;;;;;;;28.58;18.60;;;17.20;79.70;;;18.21;44.67;99406.47;5030769;28;20055;-80
2023/01/02 01:23:42;;;;;;;29.52;19.80;;;17.10;79.40;;;18.15;44.72;99405.00;5000336;28;20056;-80
2023/01/02 01:26:11;;;;;;;32.55;20.90;;;17.10;79.40;;;18.10;44.65;99400.41;4984121;28;20065;-80
2023/01/02 01:28:38;;;;;;;29.85;19.55;;;17.00;79.30;;;18.12;44.57;99400.13;5012048;28;20037;-80
2023/01/02 01:31:09;;;;;;;30.65;19.23;;;17.00;79.20;;;18.15;44.42;99396.75;5015417;28;20473;-80
2023/01/02 01:33:35;;;;;;;28.83;19.35;;;17.00;79.30;;;18.12;44.35;99397.38;5029673;28;20051;-80
2023/01/02 01:36:16;;;;;;;29.33;20.70;;;17.00;79.20;;;18.14;44.58;99392.38;5029225;28;20038;-80
2023/01/02 01:38:42;;;;;;;27.48;18.40;;;17.00;79.30;;;18.14;44.50;99392.38;5002833;28;20440;-80
2023/01/02 01:41:11;;;;;;;33.88;20.77;;;16.90;79.10;;;18.14;44.27;99387.72;5014813;28;20059;-80
2023/01/02 01:43:51;;;;;;;39.80;19.88;;;16.90;79.20;;;18.08;44.48;99379.88;5013520;28;20441;-80
2023/01/02 01:46:33;;;;;;;27.88;18.60;;;16.90;79.10;;;18.08;44.30;99388.94;5012942;28;20048;-80
2023/01/02 01:49:08;;;;;;;30.15;19.40;;;16.90;79.20;;;18.07;44.62;99381.81;5031012;28;20055;-81
2023/01/02 01:51:39;;;;;;;33.95;20.70;;;16.90;79.20;;;18.08;44.44;99377.13;5001385;28;20052;-81
2023/01/02 01:54:09;;;;;;;29.48;20.05;;;16.90;79.20;;;18.06;44.68;99368.41;5001462;28;20492;-81
2023/01/02 01:56:39;;;;;;;27.42;19.83;;;16.90;79.20;;;18.05;44.75;99364.03;5000655;28;20410;-81
2023/01/02 01:59:06;;;;;;;27.77;19.98;;;16.90;79.20;;;18.06;44.38;99365.66;5014893;28;20045;-81
2023/01/02 02:01:32;;;;;;;30.35;21.42;;;16.90;79.20;;;18.07;44.70;99359.88;4998501;28;20031;-81
2023/01/02 02:03:58;;;;;;;27.45;19.38;;;16.90;79.20;;;18.10;44.30;99358.44;4997815;28;20095;-81
2023/01/02 02:06:24;;;;;;;27.48;19.17;;;16.90;78.90;;;18.05;44.49;99353.06;5012886;28;20041;-81
2023/01/02 02:09:03;;;;;;;26.77;19.67;;;16.90;78.90;;;18.05;44.41;99351.13;5012602;28;20087;-81
2023/01/02 02:11:29;;;;;;;31.63;20.73;;;16.90;79.00;;;18.05;44.13;99356.59;5022423;28;20063;-80
2023/01/02 02:13:59;;;;;;;30.45;19.52;;;16.90;79.00;;;18.03;44.41;99353.34;4995744;28;20218;-81
2023/01/02 02:16:53;;;;;;;25.88;18.10;;;16.80;79.10;;;17.99;44.64;99358.66;5002503;28;20124;-81
2023/01/02 02:19:54;;;;;;;27.90;19.15;;;16.90;79.10;;;17.98;44.51;99365.25;5025337;28;20057;-81
2023/01/02 02:22:30;;;;;;;26.90;18.60;;;16.90;79.00;;;18.05;44.34;99366.78;5029258;28;20123;-81
2023/01/02 02:25:24;;;;;;;26.27;19.08;;;16.90;78.70;;;17.97;44.35;99368.34;5050082;28;20128;-81
2023/01/02 02:28:21;;;;;;;26.60;18.80;;;16.90;78.70;;;18.03;44.21;99363.53;5067526;28;20119;-81
2023/01/02 02:30:54;;;;;;;29.08;19.77;;;16.90;78.70;;;18.04;44.17;99365.13;5050534;28;20045;-81
2023/01/02 02:33:51;;;;;;;29.63;18.85;;;16.90;79.00;;;18.06;44.81;99352.72;5035836;28;20120;-81
2023/01/02 02:36:39;;;;;;;30.30;19.10;;;16.90;79.50;;;18.10;44.84;99345.50;5066378;28;20057;-81
2023/01/02 02:39:59;;;;;;;28.10;20.30;;;16.90;79.80;;;17.99;44.52;99336.72;5023207;28;20074;-80
2023/01/02 02:42:59;;;;;;;29.25;20.50;;;16.90;79.10;;;17.98;44.68;99340.56;5046793;28;20765;-81
2023/01/02 02:46:05;;;;;;;31.27;18.88;;;16.80;79.10;;;18.00;44.44;99338.31;5050107;28;20045;-81
2023/01/02 02:48:34;;;;;;;28.05;19.38;;;16.80;79.10;;;18.05;44.64;99342.88;5066031;28;20052;-81
2023/01/02 02:51:07;;;;;;;30.45;19.95;;;16.80;79.80;;;18.06;44.96;99344.50;5055186;28;20070;-81
2023/01/02 02:53:46;;;;;;;26.45;18.77;;;16.80;80.00;;;18.04;44.75;99335.78;5004023;28;20036;-81
2023/01/02 02:56:12;;;;;;;24.67;18.42;;;16.90;79.70;;;18.03;44.48;99336.09;5038944;28;20049;-81
2023/01/02 02:58:39;;;;;;;24.40;18.63;;;16.80;79.10;;;17.98;44.85;99329.56;5036206;28;20037;-80
2023/01/02 03:01:07;;;;;;;25.15;18.50;;;16.80;79.30;;;17.96;44.59;99331.00;5037031;28;20045;-81
2023/01/02 03:03:33;;;;;;;30.55;20.70;;;16.80;79.40;;;17.93;44.55;99332.44;5018791;28;20435;-81
2023/01/02 03:06:22;;;;;;;29.02;19.55;;;16.80;79.30;;;17.96;44.73;99333.75;5018352;28;20032;-81
2023/01/02 03:09:18;;;;;;;24.65;18.75;;;16.80;79.50;;;17.92;44.81;99333.56;5051236;28;20032;-81
2023/01/02 03:12:17;;;;;;;26.55;18.73;;;16.80;79.40;;;17.91;44.57;99333.88;5041749;28;20041;-81
2023/01/02 03:15:26;;;;;;;28.48;18.92;;;16.80;80.00;;;17.93;44.55;99337.94;5040488;28;20036;-81
2023/01/02 03:18:23;;;;;;;30.90;18.42;;;16.70;79.10;;;17.98;44.64;99342.50;5068525;28;20045;-81
2023/01/02 03:20:59;;;;;;;29.02;19.42;;;16.80;79.20;;;17.94;44.55;99342.31;5061721;28;20052;-81
2023/01/02 03:23:26;;;;;;;27.50;19.90;;;16.70;79.20;;;17.98;44.34;99342.50;5037420;28;20053;-81
2023/01/02 03:25:52;;;;;;;26.15;18.85;;;16.70;79.10;;;17.96;44.53;99347.47;5047292;28;20460;-81
2023/01/02 03:28:19;;;;;;;30.15;19.88;;;16.70;79.30;;;17.93;44.58;99337.13;5034420;28;20483;-80
2023/01/02 03:30:45;;;;;;;28.00;18.80;;;16.70;79.20;;;17.94;44.35;99339.56;5019403;28;20051;-80
2023/01/02 03:33:17;;;;;;;29.30;18.25;;;16.80;79.20;;;17.93;44.49;99337.13;5030020;28;20037;-80
2023/01/02 03:35:54;;;;;;;28.08;18.80;;;16.80;79.00;;;17.91;44.52;99344.84;5038483;28;20063;-80
2023/01/02 03:38:25;;;;;;;24.88;17.88;;;16.80;79.00;;;17.92;44.36;99341.81;5049963;28;20045;-80
2023/01/02 03:41:05;;;;;;;28.10;18.35;;;16.80;79.10;;;17.91;44.43;99342.09;5034970;28;20467;-80
2023/01/02 03:43:31;;;;;;;24.30;17.05;;;16.70;79.00;;;17.92;44.43;99341.81;5035805;28;20119;-80
2023/01/02 03:46:16;;;;;;;25.45;18.83;;;16.80;79.10;;;17.91;44.54;99347.59;5030160;28;20045;-80
2023/01/02 03:48:52;;;;;;;27.45;18.40;;;16.70;79.10;;;17.86;44.44;99345.78;5050582;28;20045;-80
2023/01/02 03:51:18;;;;;;;28.85;18.48;;;16.70;79.10;;;17.87;44.61;99341.91;5028894;28;20042;-80
2023/01/02 03:53:44;;;;;;;25.27;18.75;;;16.70;79.10;;;17.88;44.54;99342.72;5006781;28;20037;-80
2023/01/02 03:56:41;;;;;;;28.08;18.80;;;16.60;79.20;;;17.88;44.38;99340.78;5027951;28;20112;-80
2023/01/02 03:59:27;;;;;;;26.88;18.20;;;16.70;79.10;;;17.90;44.53;99343.22;5032061;28;20032;-80
2023/01/02 04:02:00;;;;;;;26.30;17.92;;;16.70;78.90;;;17.84;44.40;99334.31;5015513;28;20800;-80
2023/01/02 04:04:29;;;;;;;26.50;18.10;;;16.70;78.90;;;17.85;44.48;99329.63;5020569;28;20089;-80
2023/01/02 04:06:59;;;;;;;24.15;18.15;;;16.60;79.00;;;17.88;44.42;99324.31;5061331;28;20056;-80
2023/01/02 04:09:27;;;;;;;30.60;19.48;;;16.70;79.10;;;17.88;44.63;99318.84;5015930;28;20036;-80
2023/01/02 04:12:07;;;;;;;27.08;18.80;;;16.70;79.00;;;17.86;44.19;99323.84;5031830;28;20088;-80
2023/01/02 04:14:58;;;;;;;25.85;17.80;;;16.70;78.90;;;17.85;44.40;99329.63;5017599;28;20477;-80
2023/01/02 04:17:24;;;;;;;25.75;18.05;;;16.70;78.90;;;17.85;44.45;99332.38;5033556;28;20473;-80
2023/01/02 04:20:02;;;;;;;23.65;17.88;;;16.70;78.90;;;17.83;44.42;99320.88;5014794;28;20037;-80
2023/01/02 04:22:40;;;;;;;25.73;17.85;;;16.70;78.90;;;17.85;44.37;99329.63;5030207;28;20056;-80
2023/01/02 04:25:13;;;;;;;28.25;18.80;;;16.70;78.90;;;17.84;44.37;99317.84;5023729;28;20462;-80
2023/01/02 04:28:08;;;;;;;25.58;18.35;;;16.70;78.90;;;17.80;44.43;99322.31;5006899;28;20072;-80
2023/01/02 04:30:38;;;;;;;23.63;18.52;;;16.70;78.80;;;17.84;44.13;99317.84;5025865;28;20075;-80
2023/01/02 04:33:07;;;;;;;29.95;18.48;;;16.70;78.70;;;17.81;44.25;99320.38;5020960;28;20036;-80
2023/01/02 04:35:34;;;;;;;25.95;18.80;;;16.70;78.70;;;17.80;44.27;99314.09;5000927;28;20101;-80
2023/01/02 04:38:10;;;;;;;23.13;17.52;;;16.60;78.80;;;17.83;44.18;99318.13;5017017;28;20364;-80
2023/01/02 04:40:37;;;;;;;24.77;17.35;;;16.60;78.80;;;17.81;44.17;99312.97;5052600;28;20047;-80
2023/01/02 04:43:21;;;;;;;26.23;18.17;;;16.70;78.70;;;17.82;44.44;99313.78;5031271;28;20119;-80
2023/01/02 04:45:49;;;;;;;29.35;19.48;;;16.60;78.70;;;17.81;44.43;99312.97;5061046;28;20044;-80
2023/01/02 04:48:15;;;;;;;22.88;17.52;;;16.60;78.80;;;17.81;44.40;99318.47;5058705;28;20059;-80
2023/01/02 04:50:43;;;;;;;27.42;18.30;;;16.60;78.60;;;17.79;44.37;99306.94;5034131;28;20045;-80
2023/01/02 04:53:09;;;;;;;26.92;19.05;;;16.70;78.60;;;17.76;44.53;99305.63;5016393;28;20041;-80
2023/01/02 04:55:39;;;;;;;25.90;18.90;;;16.70;78.70;;;17.81;44.38;99304.75;5036115;28;20044;-81
2023/01/02 04:58:05;;;;;;;26.73;18.42;;;16.70;78.60;;;17.76;44.39;99300.16;5040782;28;20051;-81
2023/01/02 05:00:31;;;;;;;27.60;18.42;;;16.70;78.70;;;17.77;44.46;99290.78;5035432;28;20041;-81
2023/01/02 05:02:57;;;;;;;23.30;17.42;;;16.60;78.60;;;17.78;44.38;99303.41;5025044;28;20060;-81
2023/01/02 05:05:23;;;;;;;26.05;17.83;;;16.60;78.60;;;17.76;44.11;99293.84;5026917;28;20289;-80
2023/01/02 05:07:49;;;;;;;26.27;17.90;;;16.60;78.60;;;17.83;44.47;99290.69;5053785;28;20051;-81
2023/01/02 05:10:15;;;;;;;25.95;18.23;;;16.60;79.10;;;17.87;44.53;99298.00;5039181;28;20036;-81
2023/01/02 05:12:42;;;;;;;22.38;17.50;;;16.60;79.30;;;17.82;44.28;99289.91;5048784;28;20044;-81
2023/01/02 05:15:09;;;;;;;23.48;18.38;;;16.60;79.00;;;17.76;44.50;99288.38;5036329;28;20041;-81
2023/01/02 05:17:39;;;;;;;22.05;16.83;;;16.50;79.00;;;17.78;44.50;99284.19;5034960;28;20064;-81
2023/01/02 05:20:10;;;;;;;23.25;15.68;;;16.50;78.90;;;17.78;44.23;99283.34;5023003;28;20044;-81
2023/01/02 05:25:25;;;;;;;26.90;17.73;;;16.60;78.90;;;17.74;44.46;99277.69;5016701;28;20069;-81
2023/01/02 05:27:54;;;;;;;25.85;18.67;;;16.50;78.70;;;17.76;44.15;99280.13;5014156;28;20052;-80
2023/01/02 05:30:21;;;;;;;23.10;16.52;;;16.50;79.10;;;17.75;44.20;99279.31;4987456;28;20044;-81
2023/01/02 05:32:47;;;;;;;26.13;18.58;;;16.50;78.80;;;17.72;44.38;99271.69;4997444;28;20056;-81
2023/01/02 05:35:13;;;;;;;24.40;16.83;;;16.50;78.90;;;17.72;44.24;99276.38;5015065;28;20093;-81
2023/01/02 05:37:39;;;;;;;26.38;17.45;;;16.50;78.70;;;17.72;44.24;99270.88;5000894;28;20120;-81
2023/01/02 05:40:06;;;;;;;24.45;17.30;;;16.50;78.80;;;17.73;44.37;99272.50;5001241;28;20049;-80
2023/01/02 05:42:32;;;;;;;23.27;17.55;;;16.50;78.70;;;17.73;44.28;99270.59;5034541;28;20053;-80
2023/01/02 05:44:58;;;;;;;24.33;17.85;;;16.50;78.70;;;17.70;44.47;99267.63;5035141;28;20051;-80
2023/01/02 05:47:24;;;;;;;22.95;18.05;;;16.50;78.70;;;17.70;44.21;99273.13;5001791;28;20044;-80
2023/01/02 05:49:50;;;;;;;23.10;17.48;;;16.50;78.70;;;17.73;44.27;99262.38;5016168;28;20128;-80
2023/01/02 05:52:16;;;;;;;22.77;17.27;;;16.50;78.70;;;17.72;44.22;99262.66;5006008;28;20044;-81
2023/01/02 05:54:43;;;;;;;25.08;17.70;;;16.50;78.80;;;17.68;44.08;99259.75;5030289;28;20096;-80
2023/01/02 05:57:09;;;;;;;27.38;18.95;;;16.50;78.70;;;17.68;44.27;99254.25;5032338;28;20128;-80
2023/01/02 05:59:35;;;;;;;25.67;18.17;;;16.50;78.70;;;17.70;44.32;99264.91;5018158;28;20040;-80
2023/01/02 06:02:01;;;;;;;24.83;16.17;;;16.50;78.60;;;17.69;44.21;99260.53;5013336;28;20066;-80
2023/01/02 06:04:27;;;;;;;28.98;17.98;;;16.50;78.50;;;17.66;44.39;99250.19;5018898;28;20041;-80
2023/01/02 06:06:53;;;;;;;25.50;17.75;;;16.50;78.60;;;17.67;44.22;99251.81;5002557;28;20199;-80
2023/01/02 06:09:19;;;;;;;24.50;16.73;;;16.50;78.70;;;17.66;44.22;99256.47;5019335;28;20037;-80
2023/01/02 06:11:45;;;;;;;26.60;18.20;;;16.50;78.50;;;17.66;44.36;99255.69;5015364;28;20050;-80
2023/01/02 06:14:12;;;;;;;23.95;16.98;;;16.50;78.50;;;17.64;44.44;99255.97;5018754;28;20148;-80
2023/01/02 06:16:38;;;;;;;22.67;16.42;;;16.50;78.50;;;17.62;44.40;99260.97;5033422;28;20066;-80
2023/01/02 06:19:05;;;;;;;21.83;15.98;;;16.50;78.80;;;17.69;44.65;99272.31;5021872;28;20033;-80
2023/01/02 06:21:31;;;;;;;23.20;17.42;;;16.40;79.10;;;17.70;44.69;99270.38;5018145;28;20044;-81
2023/01/02 06:23:57;;;;;;;22.77;16.80;;;16.40;79.30;;;17.65;44.38;99274.03;5034063;28;20035;-80
2023/01/02 06:26:25;;;;;;;25.83;18.38;;;16.40;78.80;;;17.62;44.64;99277.41;5050915;28;20143;-80
2023/01/02 06:28:53;;;;;;;25.05;17.48;;;16.50;78.80;;;17.61;44.47;99278.53;5018244;28;20069;-80
2023/01/02 06:31:21;;;;;;;23.17;16.88;;;16.50;78.70;;;17.63;44.23;99279.06;5017990;28;20675;-80
2023/01/02 06:33:47;;;;;;;24.77;16.27;;;16.50;78.60;;;17.61;44.54;99280.47;5025436;28;20168;-80
2023/01/02 06:36:15;;;;;;;23.17;17.77;;;16.50;78.70;;;17.60;44.47;99278.84;5008506;28;20045;-80
2023/01/02 06:38:42;;;;;;;22.92;17.05;;;16.50;78.70;;;17.61;44.39;99283.22;5007845;28;20132;-80
2023/01/02 06:41:08;;;;;;;27.25;18.38;;;16.50;78.60;;;17.57;44.23;99291.25;5035155;28;20127;-80
2023/01/02 06:43:36;;;;;;;24.70;17.33;;;16.50;78.60;;;17.59;44.22;99297.25;5033628;28;20040;-80
2023/01/02 06:46:05;;;;;;;25.42;17.55;;;16.50;78.70;;;17.60;44.40;99289.81;5033271;28;20048;-80
2023/01/02 06:48:32;;;;;;;24.80;18.50;;;16.50;78.50;;;17.55;44.48;99288.81;5049817;28;20090;-80
2023/01/02 06:50:58;;;;;;;25.85;17.95;;;16.40;78.60;;;17.54;44.49;99286.38;5050456;28;20025;-80
2023/01/02 06:53:25;;;;;;;22.90;16.65;;;16.40;78.70;;;17.54;44.45;99292.66;5026143;28;20098;-80
2023/01/02 06:55:53;;;;;;;22.13;16.75;;;16.40;78.80;;;17.56;44.33;99295.91;5016880;28;20443;-80
2023/01/02 06:58:20;;;;;;;23.33;18.40;;;16.40;78.60;;;17.55;44.29;99297.06;5027972;28;20040;-81
2023/01/02 07:00:47;;;;;;;23.08;16.65;;;16.40;78.60;;;17.54;44.25;99289.13;5030126;28;20052;-81
2023/01/02 07:03:14;;;;;;;24.17;16.58;;;16.30;78.90;;;17.58;44.89;99288.22;5029292;28;20037;-81
2023/01/02 07:05:39;;;;;;;26.42;17.80;;;16.30;79.70;;;17.58;44.78;99290.13;5017871;28;20059;-81
2023/01/02 07:08:06;;;;;;;23.35;16.85;;;16.30;79.60;;;17.57;44.56;99288.50;5044645;28;20044;-81
2023/01/02 07:10:32;;;;;;;26.67;17.73;;;16.30;79.30;;;17.53;44.78;99301.22;5030631;28;20040;-81
2023/01/02 07:12:58;;;;;;;24.27;17.73;;;16.30;79.40;;;17.53;44.54;99293.81;5029375;28;20041;-81
2023/01/02 07:15:25;;;;;;;22.70;16.00;;;16.30;79.30;;;17.55;44.40;99288.81;5034126;28;20057;-80
2023/01/02 07:17:52;;;;;;;26.20;18.58;;;16.20;79.30;;;17.54;44.73;99281.69;5043711;28;20033;-80
2023/01/02 07:20:22;;;;;;;27.70;19.05;;;16.20;79.20;;;17.55;44.58;99282.50;5016362;28;20051;-80
2023/01/02 07:22:52;;;;;;;23.02;18.13;;;16.20;79.10;;;17.56;44.40;99287.69;5019327;28;20080;-80
2023/01/02 07:25:20;;;;;;;23.20;18.45;;;16.20;79.10;;;17.53;44.52;99287.50;5004542;28;20049;-80
2023/01/02 07:27:50;;;;;;;23.65;17.70;;;16.20;78.90;;;17.54;44.30;99294.59;5019018;28;20073;-80
2023/01/02 07:30:18;;;;;;;26.75;18.50;;;16.20;78.90;;;17.55;44.28;99286.09;5049307;28;20049;-80
2023/01/02 07:32:44;;;;;;;24.00;17.20;;;16.20;79.10;;;17.54;44.39;99292.66;5002133;28;20036;-80
2023/01/02 07:35:13;;;;;;;24.25;17.60;;;16.20;78.90;;;17.53;44.51;99287.50;5003490;28;20043;-80
2023/01/02 07:37:39;;;;;;;24.63;17.63;;;16.20;79.00;;;17.54;44.30;99289.94;5021169;28;20051;-80
2023/01/02 07:40:09;;;;;;;25.42;18.15;;;16.20;79.20;;;17.58;44.10;99290.13;5023836;28;20381;-81
2023/01/02 07:42:37;;;;;;;25.58;17.92;;;16.20;79.10;;;17.58;44.12;99282.72;5034327;28;20052;-81
2023/01/02 07:45:06;;;;;;;28.25;17.75;;;16.20;78.90;;;17.56;44.28;99290.44;5006490;28;20040;-81
2023/01/02 07:47:33;;;;;;;26.20;17.83;;;16.20;79.00;;;17.53;44.26;99284.78;5035350;28;20124;-81
2023/01/02 07:49:59;;;;;;;25.33;18.85;;;16.10;79.10;;;17.53;44.47;99296.53;5032135;28;20369;-81
2023/01/02 07:52:25;;;;;;;25.05;17.67;;;16.20;79.20;;;17.57;44.40;99285.75;5014918;28;20045;-81
2023/01/02 07:54:51;;;;;;;25.00;17.80;;;16.20;79.20;;;17.57;44.23;99277.53;5047343;28;20047;-81
2023/01/02 07:57:17;;;;;;;24.85;17.90;;;16.10;79.30;;;17.58;44.13;99282.72;5035615;28;20545;-81
2023/01/02 07:59:45;;;;;;;24.48;19.60;;;16.10;79.10;;;17.61;44.17;99280.47;5042800;28;20047;-81
2023/01/02 08:02:12;;;;;;;27.25;18.67;;;16.20;79.10;;;17.56;44.21;99281.41;5020037;28;20048;-81
2023/01/02 08:04:38;;;;;;;27.48;18.55;;;16.20;79.10;;;17.57;44.29;99278.34;5030528;28;20109;-81
2023/01/02 08:07:05;;;;;;;21.98;16.80;;;16.10;80.00;;;17.59;44.32;99275.28;5000891;28;20846;-82
2023/01/02 08:09:31;;;;;;;27.10;18.10;;;16.10;79.20;;;17.58;43.95;99274.50;5030774;28;20091;-81
2023/01/02 08:11:57;;;;;;;26.40;17.83;;;16.10;79.30;;;17.57;44.26;99269.31;5043448;28;20136;-81
2023/01/02 08:14:23;;;;;;;28.67;19.42;;;16.10;79.60;;;17.59;43.94;99275.28;5027268;28;20037;-82
2023/01/02 08:16:50;;;;;;;29.20;18.98;;;16.10;79.30;;;17.57;44.01;99270.09;5015967;28;20048;-82
2023/01/02 08:19:16;;;;;;;25.70;17.80;;;16.10;79.30;;;17.57;43.93;99285.75;5011445;28;20045;-82
2023/01/02 08:21:43;;;;;;;28.02;18.30;;;16.10;79.30;;;17.56;44.15;99282.22;5027545;28;20028;-81
2023/01/02 08:24:09;;;;;;;24.63;18.33;;;16.10;79.10;;;17.55;44.09;99288.81;5049610;28;20040;-81
2023/01/02 08:26:35;;;;;;;27.08;20.13;;;16.10;79.10;;;17.57;44.15;99286.56;5049652;28;20040;-82
2023/01/02 08:29:01;;;;;;;28.20;19.90;;;16.10;79.10;;;17.58;44.15;99288.22;5041595;28;20048;-81
2023/01/02 08:31:27;;;;;;;28.30;19.17;;;16.10;79.00;;;17.59;44.27;99278.03;5047211;28;20072;-81
2023/01/02 08:33:53;;;;;;;27.27;20.23;;;16.10;79.30;;;17.59;43.88;99283.53;5047954;28;20029;-81
2023/01/02 08:36:19;;;;;;;27.17;18.30;;;16.10;79.30;;;17.57;44.16;99289.31;5030833;28;20188;-81
2023/01/02 08:38:45;;;;;;;30.38;19.73;;;16.20;79.30;;;17.55;44.15;99279.75;4998950;28;20104;-82
2023/01/02 08:41:11;;;;;;;27.48;19.85;;;16.20;79.10;;;17.56;44.06;99281.41;5046795;28;20573;-82
2023/01/02 08:43:38;;;;;;;29.13;19.42;;;16.10;79.20;;;17.56;44.46;99284.94;5015809;28;20040;-82
2023/01/02 08:46:08;;;;;;;24.52;18.38;;;16.10;79.30;;;17.72;43.76;99284.59;4995726;28;20124;-82
2023/01/02 08:48:34;;;;;;;28.85;19.52;;;16.10;79.10;;;17.61;44.04;99283.22;5034083;28;20534;-82
2023/01/02 08:51:01;;;;;;;27.17;20.23;;;16.20;79.30;;;17.59;44.21;99283.53;5022797;28;20653;-81
2023/01/02 08:53:29;;;;;;;25.85;18.75;;;16.10;79.10;;;17.64;44.00;99286.16;5017498;28;20380;-81
2023/01/02 08:56:36;;;;;;;26.88;19.70;;;16.10;79.10;;;17.60;44.05;99276.91;5013747;28;20168;-81
2023/01/02 08:59:05;;;;;;;25.95;19.70;;;16.20;79.30;;;17.57;44.20;99274.78;5029481;28;20115;-82
2023/01/02 09:01:31;;;;;;;26.10;19.65;;;16.20;79.20;;;17.60;44.25;99274.16;5031629;28;20064;-81
2023/01/02 09:03:58;;;;;;;30.02;19.88;;;16.20;79.00;;;17.60;44.05;99274.16;5033136;28;20041;-82
2023/01/02 09:06:25;;;;;;;26.63;18.90;;;16.10;78.90;;;17.60;44.20;99267.88;5011164;28;20466;-82
2023/01/02 09:08:52;;;;;;;29.38;20.15;;;16.20;78.90;;;17.64;43.87;99266.94;5032650;28;20052;-82
2023/01/02 09:11:27;;;;;;;28.42;20.25;;;16.20;78.90;;;17.67;44.10;99273.75;5015497;28;20109;-80
2023/01/02 09:13:54;;;;;;;28.48;20.45;;;16.20;78.90;;;17.63;43.83;99267.25;5013169;28;20056;-80
2023/01/02 09:16:21;;;;;;;29.60;20.10;;;16.20;78.80;;;17.62;44.10;99266.44;5028493;28;20124;-80
2023/01/02 09:18:47;;;;;;;34.83;21.23;;;16.20;78.80;;;17.66;43.93;99261.16;5036093;28;20090;-80
2023/01/02 09:21:13;;;;;;;27.95;18.75;;;16.20;78.80;;;17.66;43.74;99252.94;5024171;28;20116;-80
2023/01/02 09:23:39;;;;;;;30.75;20.60;;;16.20;78.60;;;17.67;43.79;99251.81;5017683;28;20130;-80
2023/01/02 09:26:08;;;;;;;28.17;20.02;;;16.20;78.60;;;17.63;43.73;99248.03;5001612;28;20095;-80
2023/01/02 09:28:35;;;;;;;29.40;20.90;;;16.20;79.10;;;17.69;43.87;99239.41;5037611;28;20052;-80
2023/01/02 09:31:11;;;;;;;29.92;19.77;;;16.30;78.90;;;17.65;44.09;99229.34;5017896;28;20499;-80
2023/01/02 09:33:38;;;;;;;25.30;19.17;;;16.30;78.70;;;17.69;43.68;99239.41;5035849;28;20048;-80
2023/01/02 09:36:07;;;;;;;28.40;19.92;;;16.30;78.70;;;17.69;43.96;99235.84;5023815;28;20116;-81
2023/01/02 09:38:35;;;;;;;29.48;21.17;;;16.20;78.60;;;17.70;43.80;99240.22;5037055;28;20194;-80
2023/01/02 09:41:40;;;;;;;28.48;21.08;;;16.30;78.50;;;17.66;43.87;99231.00;5035017;28;20100;-80
2023/01/02 09:44:15;;;;;;;27.25;20.73;;;16.30;78.50;;;17.78;43.74;99220.25;5031261;28;20057;-81
2023/01/02 09:47:00;;;;;;;30.70;21.13;;;16.30;79.00;;;17.78;43.93;99214.75;5036437;28;20052;-81
2023/01/02 09:49:29;;;;;;;26.10;19.00;;;16.30;79.00;;;17.73;43.72;99212.16;5016759;28;20126;-81
2023/01/02 09:51:55;;;;;;;28.55;18.90;;;16.30;78.90;;;17.79;43.63;99213.66;5032803;28;20046;-81
2023/01/02 09:54:30;;;;;;;31.50;22.15;;;16.30;78.50;;;17.74;43.51;99211.84;5019211;28;20036;-80
2023/01/02 09:57:29;;;;;;;29.10;20.20;;;16.30;78.50;;;17.76;43.67;99206.06;5032607;28;20045;-80
2023/01/02 10:00:19;;;;;;;28.17;19.67;;;16.30;78.50;;;17.79;43.94;99205.44;5034469;28;20052;-80
2023/01/02 10:03:19;;;;;;;28.73;19.75;;;16.30;79.00;;;17.81;44.00;99200.47;5049104;28;20056;-81
2023/01/02 10:06:08;;;;;;;26.63;19.98;;;16.40;78.90;;;17.81;43.68;99208.72;5031490;28;20051;-81
2023/01/02 10:08:59;;;;;;;26.75;19.42;;;16.40;78.60;;;17.82;43.72;99202.09;5065753;28;20114;-81
2023/01/02 10:11:25;;;;;;;27.85;18.42;;;16.40;78.60;;;17.79;43.66;99203.53;5050595;28;20476;-80
2023/01/02 10:14:20;;;;;;;28.48;20.02;;;16.40;78.60;;;17.83;43.68;99194.66;5061381;28;20082;-81
2023/01/02 10:16:50;;;;;;;27.90;19.25;;;16.40;78.70;;;17.89;43.63;99186.00;5064318;28;20045;-80
2023/01/02 10:19:42;;;;;;;28.48;19.63;;;16.40;78.90;;;18.02;44.71;99192.53;5028599;28;20457;-80
2023/01/02 10:22:12;;;;;;;30.88;20.33;;;16.50;80.00;;;17.97;44.03;99187.19;5032829;28;20025;-80
2023/01/02 10:24:49;;;;;;;29.05;21.10;;;16.60;79.30;;;17.89;44.08;99182.44;5019724;28;20393;-80